Terminal Aerodrome Forecast
Issued by NWS

Current Version | Previous Version | Text Only | Print | Product List | Glossary On
Versions: 1 2 3 4 5 6 7 8 9 10 11 12 13 14 15 16
042
FTUS46 KSGX 200520
TAFONT
TAF
KONT 200520Z 2006/2112 VRB04KT P6SM FEW012
     FM201000 VRB03KT 4SM BR BKN010
     FM201600 VRB04KT P6SM FEW012
     FM201900 25011KT P6SM SKC
     FM210500 VRB04KT P6SM SKC
     FM211000 VRB04KT 4SM BR BKN010=

USA.gov is the U.S. government's official web portal to all federal, state and local government web resources and services.